Portada
METAR-TAF:

METAR-TAF

Aeropuertos :

Aeropuerto Internacional de Mehrabad

Teherán, Irán

latitud: 35-41N, longitud: 051-21E, altitud: 1204 m

Observación

El informe se hizo hace 17 minutos, a las 22:00 UTC
Viento 8 kt del oeste-noroeste
Temperatura 24°C
Humedad 38%
Presión 1012 hPa
Visibilidad 10 km o más
sin nubes por debajo de 1500 m y sin presencia de cumulonimbus.

METAR: OIII 192200Z 29008KT CAVOK 24/09 Q1011 A2987 NOSIG

Hora: 02:47 (22:17 UTC)

Pronóstico

El informe se hizo hace 5 horas y 17 minutos, a las 17:00 UTC
Pronóstico válido del 19 a las 18 UTC al 20 a las 24 UTC
Viento 8 kt del oeste-suroeste
Visibilidad 10 km o más
sin nubes por debajo de 1500 m y sin presencia de cumulonimbus.
Temporalmente
del 19 a las 18 UTC al 19 a las 21 UTC
Viento 16 kt del noroeste
Temporalmente
del 20 a las 06 UTC al 20 a las 11 UTC
Viento 16 kt del sur-sureste

TAF: OIII 191700Z 1918/2024 24004MPS CAVOK TEMPO 1918/1921 32008MPS TEMPO 2006/2011 15008MPS

Observaciones y pronósticos meteorológicos de más de 4000 aeropuertos (mensajes METAR y TAF).

Los puntos amarillos y rojos representan las estaciones disponibles.

Ponga el ratón en el punto deseado para ver el nombre de la estación.

Haga clic para ver las observaciones y los pronósticos meteorológicos.

Para cambiar el mapa : haga clic en los botones verdes con una cruz de color negro para hacer un zoom, en el botón verde con un guión para alejar o en las flechas verdes para mapas adyacentes.


METAR-TAF: